createdAt,value
2022-10-02T00:00:24.985Z,98537.60
2022-10-02T00:03:40.709Z,98536.53
2022-10-02T00:06:41.117Z,98539.65
2022-10-02T00:09:38.728Z,98537.67
2022-10-02T00:12:32.823Z,98536.54
2022-10-02T00:15:28.041Z,98542.17
2022-10-02T00:18:17.090Z,98542.30
2022-10-02T00:21:22.531Z,98546.48
2022-10-02T00:24:20.117Z,98547.84
2022-10-02T00:27:19.269Z,98543.55
2022-10-02T00:30:16.677Z,98540.69
2022-10-02T00:33:22.156Z,98544.74
2022-10-02T00:36:24.036Z,98549.23
2022-10-02T00:39:29.561Z,98550.14
2022-10-02T00:43:11.257Z,98549.47
2022-10-02T00:46:19.218Z,98548.65
2022-10-02T00:49:34.813Z,98547.21
2022-10-02T00:52:43.107Z,98552.00
2022-10-02T00:55:55.006Z,98547.47
2022-10-02T00:59:01.292Z,98550.60
2022-10-02T01:01:58.502Z,98554.77
2022-10-02T01:04:50.554Z,98555.10
2022-10-02T01:07:46.303Z,98555.96
2022-10-02T01:10:40.703Z,98555.10
2022-10-02T01:13:33.640Z,98555.48
2022-10-02T01:16:24.448Z,98553.89
2022-10-02T01:19:27.136Z,98559.63
2022-10-02T01:22:28.127Z,98559.98
2022-10-02T01:25:19.283Z,98561.93
2022-10-02T01:28:11.866Z,98562.79
2022-10-02T01:31:07.732Z,98563.95
2022-10-02T01:34:00.023Z,98562.52
2022-10-02T01:36:52.175Z,98563.61
2022-10-02T01:39:44.833Z,98563.84
2022-10-02T01:42:37.195Z,98562.63
2022-10-02T01:45:43.692Z,98566.70
2022-10-02T01:48:46.664Z,98566.52
2022-10-02T01:51:50.454Z,98568.30
2022-10-02T01:54:57.906Z,98572.17
2022-10-02T01:58:00.902Z,98574.02
2022-10-02T02:01:10.442Z,98584.36
2022-10-02T02:04:12.821Z,98587.70
2022-10-02T02:07:13.984Z,98585.73
2022-10-02T02:10:14.687Z,98589.50
2022-10-02T02:13:05.177Z,98594.38
2022-10-02T02:16:05.146Z,98596.82
2022-10-02T02:19:06.755Z,98602.05
2022-10-02T02:22:02.335Z,98598.40
2022-10-02T02:24:59.387Z,98597.13
2022-10-02T02:27:44.192Z,98595.31
2022-10-02T02:30:37.619Z,98595.77
2022-10-02T02:33:37.856Z,98601.89
2022-10-02T02:36:37.874Z,98599.56
2022-10-02T02:39:35.502Z,98603.90
2022-10-02T02:42:31.856Z,98606.35
2022-10-02T02:45:26.642Z,98607.06
2022-10-02T02:48:22.497Z,98607.56
2022-10-02T02:51:19.501Z,98608.97
2022-10-02T02:54:16.891Z,98604.25
2022-10-02T02:57:12.521Z,98606.85
2022-10-02T03:00:06.730Z,98613.15
2022-10-02T03:02:58.792Z,98611.61
2022-10-02T03:05:54.335Z,98611.62
2022-10-02T03:08:48.411Z,98611.48
2022-10-02T03:11:53.825Z,98613.92
2022-10-02T03:15:04.047Z,98627.11
2022-10-02T03:18:16.410Z,98634.70
2022-10-02T03:21:15.809Z,98636.45
2022-10-02T03:24:17.711Z,98628.82
2022-10-02T03:27:13.589Z,98621.56
2022-10-02T03:30:09.762Z,98627.85
2022-10-02T03:33:03.437Z,98630.98
2022-10-02T03:35:56.964Z,98629.25
2022-10-02T03:39:00.722Z,98629.61
2022-10-02T03:41:58.478Z,98628.38
2022-10-02T03:44:50.506Z,98632.06
2022-10-02T03:47:42.520Z,98636.16
2022-10-02T03:50:36.548Z,98633.20
2022-10-02T03:53:35.142Z,98638.66
2022-10-02T03:56:41.452Z,98635.55
2022-10-02T03:59:42.828Z,98644.71
2022-10-02T04:02:39.543Z,98645.20
2022-10-02T04:05:37.928Z,98647.98
2022-10-02T04:08:33.607Z,98651.84
2022-10-02T04:11:33.151Z,98648.16
2022-10-02T04:14:30.434Z,98648.88
2022-10-02T04:17:26.477Z,98647.98
2022-10-02T04:20:23.964Z,98643.26
2022-10-02T04:23:21.632Z,98647.80
2022-10-02T04:26:20.288Z,98649.34
2022-10-02T04:29:14.617Z,98651.95
2022-10-02T04:32:15.603Z,98658.59
2022-10-02T04:35:16.085Z,98663.13
2022-10-02T04:38:30.265Z,98666.09
2022-10-02T04:41:38.336Z,98663.43
2022-10-02T04:44:44.394Z,98664.08
2022-10-02T04:48:07.762Z,98663.84
2022-10-02T04:50:59.112Z,98667.15
2022-10-02T04:53:46.809Z,98667.80
2022-10-02T04:57:03.100Z,98672.37
2022-10-02T05:00:07.374Z,98677.05
2022-10-02T05:03:10.770Z,98678.39
2022-10-02T05:06:15.361Z,98682.74
2022-10-02T05:09:17.381Z,98682.70
2022-10-02T05:12:24.094Z,98682.80
2022-10-02T05:15:33.630Z,98689.09
2022-10-02T05:18:45.166Z,98688.34
2022-10-02T05:21:40.834Z,98692.31
2022-10-02T05:24:46.177Z,98698.95
2022-10-02T05:28:00.126Z,98702.60
2022-10-02T05:30:57.224Z,98702.02
2022-10-02T05:33:58.239Z,98708.10
2022-10-02T05:37:06.877Z,98711.94
2022-10-02T05:40:09.392Z,98706.30
2022-10-02T05:43:08.938Z,98712.92
2022-10-02T05:46:03.845Z,98716.86
2022-10-02T05:49:01.667Z,98719.39
2022-10-02T05:52:00.419Z,98717.37
2022-10-02T05:54:57.990Z,98719.93
2022-10-02T05:57:41.594Z,98716.73
2022-10-02T06:00:40.109Z,98718.52
2022-10-02T06:03:43.649Z,98722.06
2022-10-02T06:06:41.258Z,98722.88
2022-10-02T06:09:37.930Z,98727.88
2022-10-02T06:12:36.535Z,98730.28
2022-10-02T06:15:34.323Z,98732.48
2022-10-02T06:18:31.583Z,98735.77
2022-10-02T06:21:29.445Z,98735.27
2022-10-02T06:24:27.758Z,98732.08
2022-10-02T06:27:26.447Z,98744.23
2022-10-02T06:30:14.524Z,98745.61
2022-10-02T06:33:00.228Z,98748.88
2022-10-02T06:35:59.895Z,98752.16
2022-10-02T06:38:45.505Z,98760.58
2022-10-02T06:41:26.946Z,98758.59
2022-10-02T06:44:26.678Z,98761.35
2022-10-02T06:47:35.047Z,98765.84
2022-10-02T06:50:41.158Z,98774.03
2022-10-02T06:53:41.976Z,98772.69
2022-10-02T06:56:46.827Z,98781.32
2022-10-02T06:59:47.595Z,98784.62
2022-10-02T07:02:59.434Z,98790.74
2022-10-02T07:06:21.951Z,98788.88
2022-10-02T07:09:45.889Z,98791.85
2022-10-02T07:12:55.034Z,98796.63
2022-10-02T07:15:49.630Z,98796.30
2022-10-02T07:18:45.681Z,98804.98
2022-10-02T07:21:41.762Z,98807.30
2022-10-02T07:24:52.352Z,98805.65
2022-10-02T07:27:53.162Z,98808.06
2022-10-02T07:30:56.109Z,98809.39
2022-10-02T07:33:53.997Z,98811.61
2022-10-02T07:36:50.823Z,98811.15
2022-10-02T07:39:56.625Z,98811.13
2022-10-02T07:42:56.559Z,98815.89
2022-10-02T07:45:45.067Z,98815.54
2022-10-02T07:48:53.700Z,98819.09
2022-10-02T07:51:50.150Z,98820.58
2022-10-02T07:55:07.416Z,98821.62
2022-10-02T07:58:06.283Z,98825.95
2022-10-02T08:00:43.696Z,98816.55
2022-10-02T08:03:41.133Z,98819.70
2022-10-02T08:06:35.331Z,98811.19
2022-10-02T08:09:12.387Z,98813.64
2022-10-02T08:12:00.973Z,98815.77
2022-10-02T08:14:56.204Z,98820.19
2022-10-02T08:17:46.163Z,98814.60
2022-10-02T08:20:34.139Z,98816.55
2022-10-02T08:23:29.351Z,98818.24
2022-10-02T08:26:07.153Z,98819.89
2022-10-02T08:28:48.447Z,98821.46
2022-10-02T08:31:40.537Z,98820.36
2022-10-02T08:34:20.978Z,98826.57
2022-10-02T08:37:32.415Z,98829.89
2022-10-02T08:41:04.982Z,98824.35
2022-10-02T08:44:36.487Z,98834.10
2022-10-02T08:48:11.313Z,98835.71
2022-10-02T08:51:39.324Z,98836.40
2022-10-02T08:54:58.797Z,98841.57
2022-10-02T08:58:28.583Z,98838.55
2022-10-02T09:01:40.136Z,98847.41
2022-10-02T09:05:09.802Z,98837.98
2022-10-02T09:08:29.354Z,98837.15
2022-10-02T09:11:48.625Z,98845.11
2022-10-02T09:14:55.596Z,98845.13
2022-10-02T09:18:00.618Z,98848.98
2022-10-02T09:21:15.074Z,98845.63
2022-10-02T09:24:34.315Z,98848.58
2022-10-02T09:27:45.924Z,98855.39
2022-10-02T09:30:50.421Z,98848.33
2022-10-02T09:34:09.413Z,98852.41
2022-10-02T09:37:28.394Z,98854.82
2022-10-02T09:40:43.318Z,98852.39
2022-10-02T09:44:06.412Z,98849.05
2022-10-02T09:47:40.988Z,98854.08
2022-10-02T09:51:10.012Z,98846.02
2022-10-02T09:54:26.665Z,98841.16
2022-10-02T09:58:07.236Z,98838.61
2022-10-02T10:01:37.958Z,98837.80
2022-10-02T10:05:07.366Z,98839.35
2022-10-02T10:08:25.760Z,98838.11
2022-10-02T10:11:47.850Z,98839.23
2022-10-02T10:15:10.451Z,98835.73
2022-10-02T10:18:39.495Z,98832.58
2022-10-02T10:22:22.310Z,98830.79
2022-10-02T10:25:11.938Z,98833.67
2022-10-02T10:28:22.399Z,98833.60
2022-10-02T10:31:31.253Z,98836.34
2022-10-02T10:35:00.428Z,98832.92
2022-10-02T10:38:12.116Z,98837.05
2022-10-02T10:41:04.614Z,98830.83
2022-10-02T10:44:20.183Z,98839.80
2022-10-02T10:47:22.073Z,98834.66
2022-10-02T10:50:38.683Z,98828.35
2022-10-02T10:53:50.054Z,98825.16
2022-10-02T10:56:37.201Z,98816.61
2022-10-02T11:00:03.193Z,98821.89
2022-10-02T11:03:31.915Z,98820.10
2022-10-02T11:06:35.997Z,98824.55
2022-10-02T11:09:55.759Z,98835.36
2022-10-02T11:13:06.551Z,98839.13
2022-10-02T11:16:26.067Z,98839.65
2022-10-02T11:19:41.226Z,98836.35
2022-10-02T11:22:45.573Z,98832.15
2022-10-02T11:25:46.474Z,98832.58
2022-10-02T11:28:48.528Z,98831.48
2022-10-02T11:31:47.216Z,98827.52
2022-10-02T11:35:18.562Z,98825.09
2022-10-02T11:38:38.631Z,98822.83
2022-10-02T11:41:49.459Z,98819.55
2022-10-02T11:44:52.564Z,98816.92
2022-10-02T11:48:12.459Z,98813.81
2022-10-02T11:51:29.210Z,98808.16
2022-10-02T11:54:38.462Z,98807.80
2022-10-02T11:57:41.426Z,98809.63
2022-10-02T12:00:58.818Z,98810.05
2022-10-02T12:04:04.245Z,98811.29
2022-10-02T12:07:13.714Z,98807.23
2022-10-02T12:10:33.246Z,98798.59
2022-10-02T12:13:47.208Z,98800.16
2022-10-02T12:16:57.050Z,98794.13
2022-10-02T12:20:24.711Z,98781.77
2022-10-02T12:23:46.663Z,98784.05
2022-10-02T12:27:04.179Z,98787.88
2022-10-02T12:30:06.384Z,98787.98
2022-10-02T12:33:30.683Z,98786.42
2022-10-02T12:36:39.701Z,98789.48
2022-10-02T12:39:50.823Z,98787.59
2022-10-02T12:42:47.119Z,98790.69
2022-10-02T12:45:58.851Z,98786.60
2022-10-02T12:49:13.789Z,98789.25
2022-10-02T12:52:39.358Z,98784.36
2022-10-02T12:56:13.692Z,98784.81
2022-10-02T12:59:16.134Z,98795.85
2022-10-02T13:02:59.661Z,98779.81
2022-10-02T13:06:21.284Z,98773.26
2022-10-02T13:09:29.866Z,98765.23
2022-10-02T13:12:41.340Z,98761.97
2022-10-02T13:15:40.162Z,98755.55
2022-10-02T13:18:45.082Z,98753.48
2022-10-02T13:21:36.089Z,98755.92
2022-10-02T13:24:48.593Z,98762.68
2022-10-02T13:27:50.001Z,98785.49
2022-10-02T13:30:52.498Z,98809.00
2022-10-02T13:34:07.856Z,98767.98
2022-10-02T13:37:15.532Z,98772.52
2022-10-02T13:40:21.687Z,98777.39
2022-10-02T13:43:34.877Z,98773.49
2022-10-02T13:46:45.820Z,98768.78
2022-10-02T13:49:30.414Z,98768.48
2022-10-02T13:52:33.772Z,98768.41
2022-10-02T13:55:27.843Z,98769.50
2022-10-02T13:58:38.900Z,98769.37
2022-10-02T14:01:44.815Z,98769.67
2022-10-02T14:04:50.599Z,98765.53
2022-10-02T14:08:09.211Z,98757.44
2022-10-02T14:11:15.941Z,98751.43
2022-10-02T14:14:26.490Z,98754.39
2022-10-02T14:17:34.573Z,98756.14
2022-10-02T14:20:44.671Z,98758.61
2022-10-02T14:23:53.959Z,98749.28
2022-10-02T14:27:03.682Z,98744.02
2022-10-02T14:30:03.957Z,98728.79
2022-10-02T14:33:03.477Z,98726.92
2022-10-02T14:36:03.514Z,98725.97
2022-10-02T14:39:11.873Z,98722.41
2022-10-02T14:42:23.827Z,98719.55
2022-10-02T14:45:31.037Z,98712.45
2022-10-02T14:48:36.436Z,98712.04
2022-10-02T14:51:41.799Z,98710.45
2022-10-02T14:55:04.962Z,98711.86
2022-10-02T14:58:25.979Z,98711.94
2022-10-02T15:01:23.426Z,98710.23
2022-10-02T15:04:29.573Z,98701.84
2022-10-02T15:07:26.917Z,98707.51
2022-10-02T15:10:23.518Z,98710.64
2022-10-02T15:13:28.796Z,98712.14
2022-10-02T15:16:52.621Z,98711.28
2022-10-02T15:19:55.967Z,98713.47
2022-10-02T15:23:00.544Z,98712.45
2022-10-02T15:26:09.746Z,98713.71
2022-10-02T15:29:14.361Z,98705.68
2022-10-02T15:32:37.068Z,98704.94
2022-10-02T15:35:49.172Z,98709.11
2022-10-02T15:39:03.689Z,98715.42
2022-10-02T15:41:49.647Z,98733.92
2022-10-02T15:45:02.238Z,98751.98
2022-10-02T15:47:57.313Z,98748.95
2022-10-02T15:50:58.932Z,98735.40
2022-10-02T15:54:00.700Z,98745.04
2022-10-02T15:57:07.342Z,98738.73
2022-10-02T16:00:11.419Z,98738.20
2022-10-02T16:02:58.402Z,98735.99
2022-10-02T16:05:43.832Z,98734.96
2022-10-02T16:08:41.911Z,98739.88
2022-10-02T16:11:32.103Z,98742.65
2022-10-02T16:14:13.918Z,98739.69
2022-10-02T16:17:14.644Z,98735.45
2022-10-02T16:20:03.917Z,98733.62
2022-10-02T16:22:55.682Z,98736.40
2022-10-02T16:25:38.135Z,98740.84
2022-10-02T16:28:20.599Z,98734.16
2022-10-02T16:31:13.550Z,98734.94
2022-10-02T16:33:59.069Z,98739.10
2022-10-02T16:36:41.490Z,98742.42
2022-10-02T16:39:31.936Z,98740.48
2022-10-02T16:42:14.700Z,98748.40
2022-10-02T16:45:04.553Z,98750.50
2022-10-02T16:47:44.761Z,98745.11
2022-10-02T16:50:24.866Z,98745.72
2022-10-02T16:53:02.397Z,98743.52
2022-10-02T16:55:39.022Z,98740.79
2022-10-02T16:58:25.635Z,98740.52
2022-10-02T17:01:02.179Z,98739.85
2022-10-02T17:03:38.843Z,98739.16
2022-10-02T17:06:20.613Z,98739.02
2022-10-02T17:09:06.579Z,98739.37
2022-10-02T17:11:48.648Z,98737.46
2022-10-02T17:14:25.483Z,98738.38
2022-10-02T17:17:03.758Z,98737.73
2022-10-02T17:19:45.887Z,98741.31
2022-10-02T17:22:33.292Z,98747.31
2022-10-02T17:25:16.102Z,98739.10
2022-10-02T17:27:54.260Z,98733.15
2022-10-02T17:30:29.021Z,98734.89
2022-10-02T17:33:16.331Z,98732.77
2022-10-02T17:35:56.404Z,98733.12
2022-10-02T17:38:59.979Z,98733.30
2022-10-02T17:41:46.443Z,98737.67
2022-10-02T17:44:26.304Z,98738.70
2022-10-02T17:47:36.201Z,98745.36
2022-10-02T17:50:26.912Z,98764.52
2022-10-02T17:53:31.558Z,98756.81
2022-10-02T17:56:30.901Z,98745.23
2022-10-02T17:59:21.005Z,98734.36
2022-10-02T18:02:02.204Z,98732.08
2022-10-02T18:04:46.268Z,98729.45
2022-10-02T18:07:36.779Z,98731.04
2022-10-02T18:10:19.737Z,98728.61
2022-10-02T18:13:18.440Z,98723.53
2022-10-02T18:16:23.034Z,98720.23
2022-10-02T18:19:16.120Z,98718.88
2022-10-02T18:21:59.209Z,98717.71
2022-10-02T18:24:46.495Z,98716.16
2022-10-02T18:27:37.121Z,98712.02
2022-10-02T18:30:17.491Z,98708.89
2022-10-02T18:33:25.802Z,98702.61
2022-10-02T18:36:12.913Z,98704.42
2022-10-02T18:38:56.112Z,98703.75
2022-10-02T18:41:44.832Z,98707.12
2022-10-02T18:44:36.023Z,98704.71
2022-10-02T18:47:17.479Z,98706.70
2022-10-02T18:50:05.703Z,98707.44
2022-10-02T18:52:49.982Z,98711.17
2022-10-02T18:55:41.046Z,98711.58
2022-10-02T18:58:24.575Z,98704.45
2022-10-02T19:01:19.315Z,98703.08
2022-10-02T19:04:08.800Z,98706.77
2022-10-02T19:06:52.408Z,98704.16
2022-10-02T19:09:28.483Z,98705.73
2022-10-02T19:12:05.230Z,98705.90
2022-10-02T19:14:42.536Z,98704.66
2022-10-02T19:17:18.547Z,98707.42
2022-10-02T19:19:50.515Z,98702.48
2022-10-02T19:22:25.957Z,98691.23
2022-10-02T19:25:05.207Z,98687.19
2022-10-02T19:27:38.695Z,98682.98
2022-10-02T19:30:25.526Z,98681.41
2022-10-02T19:33:00.051Z,98680.02
2022-10-02T19:35:34.617Z,98676.36
2022-10-02T19:38:20.573Z,98670.59
2022-10-02T19:40:58.071Z,98672.73
2022-10-02T19:43:33.856Z,98664.88
2022-10-02T19:46:10.849Z,98662.23
2022-10-02T19:48:46.729Z,98660.14
2022-10-02T19:51:22.626Z,98658.23
2022-10-02T19:54:01.397Z,98655.26
2022-10-02T19:56:39.834Z,98656.12
2022-10-02T19:59:18.594Z,98661.02
2022-10-02T20:02:20.225Z,98662.23
2022-10-02T20:04:53.960Z,98664.42
2022-10-02T20:07:29.863Z,98665.80
2022-10-02T20:10:05.997Z,98662.41
2022-10-02T20:12:41.916Z,98663.95
2022-10-02T20:15:18.563Z,98667.20
2022-10-02T20:17:50.349Z,98670.11
2022-10-02T20:20:22.402Z,98674.83
2022-10-02T20:22:58.950Z,98672.17
2022-10-02T20:25:35.681Z,98677.21
2022-10-02T20:28:18.324Z,98675.23
2022-10-02T20:30:54.176Z,98671.86
2022-10-02T20:33:32.489Z,98677.63
2022-10-02T20:36:14.291Z,98679.73
2022-10-02T20:38:49.015Z,98682.40
2022-10-02T20:41:24.885Z,98683.30
2022-10-02T20:44:03.185Z,98689.13
2022-10-02T20:46:53.135Z,98687.20
2022-10-02T20:49:52.868Z,98686.55
2022-10-02T20:53:05.597Z,98689.23
2022-10-02T20:55:43.466Z,98683.81
2022-10-02T20:58:48.269Z,98689.09
2022-10-02T21:01:22.503Z,98687.38
2022-10-02T21:04:23.533Z,98681.77
2022-10-02T21:07:35.134Z,98674.73
2022-10-02T21:10:45.552Z,98673.33
2022-10-02T21:13:41.599Z,98673.67
2022-10-02T21:16:42.237Z,98667.52
2022-10-02T21:19:43.514Z,98666.45
2022-10-02T21:22:44.621Z,98663.63
2022-10-02T21:25:42.829Z,98662.24
2022-10-02T21:28:57.916Z,98657.52
2022-10-02T21:31:52.966Z,98660.83
2022-10-02T21:34:35.299Z,98664.99
2022-10-02T21:37:22.386Z,98662.01
2022-10-02T21:40:26.429Z,98666.20
2022-10-02T21:43:30.476Z,98666.91
2022-10-02T21:46:35.976Z,98664.63
2022-10-02T21:49:41.958Z,98662.70
2022-10-02T21:52:43.850Z,98668.66
2022-10-02T21:55:42.724Z,98665.69
2022-10-02T21:58:53.866Z,98664.48
2022-10-02T22:02:09.951Z,98658.39
2022-10-02T22:05:20.391Z,98658.46
2022-10-02T22:08:03.316Z,98659.35
2022-10-02T22:10:43.320Z,98662.02
2022-10-02T22:13:25.428Z,98662.20
2022-10-02T22:16:15.263Z,98659.41
2022-10-02T22:18:55.696Z,98665.23
2022-10-02T22:21:49.588Z,98659.14
2022-10-02T22:24:41.673Z,98661.95
2022-10-02T22:27:29.755Z,98663.05
2022-10-02T22:29:59.958Z,98663.80
2022-10-02T22:33:10.308Z,98662.80
2022-10-02T22:36:22.163Z,98664.23
2022-10-02T22:39:02.380Z,98665.53
2022-10-02T22:41:44.335Z,98666.64
2022-10-02T22:44:24.745Z,98666.27
2022-10-02T22:47:03.123Z,98670.86
2022-10-02T22:49:45.599Z,98669.68
2022-10-02T22:52:25.360Z,98670.60
2022-10-02T22:55:03.149Z,98672.20
2022-10-02T22:57:43.415Z,98664.70
2022-10-02T23:00:21.034Z,98665.41
2022-10-02T23:02:59.584Z,98660.52
2022-10-02T23:05:37.974Z,98661.95
2022-10-02T23:08:33.095Z,98662.61
2022-10-02T23:11:14.616Z,98669.25
2022-10-02T23:13:49.991Z,98671.31
2022-10-02T23:16:29.268Z,98668.98
2022-10-02T23:19:10.279Z,98667.17
2022-10-02T23:21:50.579Z,98668.02
2022-10-02T23:24:29.404Z,98678.14
2022-10-02T23:27:12.899Z,98680.39
2022-10-02T23:29:55.108Z,98676.84
2022-10-02T23:32:36.092Z,98681.91
2022-10-02T23:35:14.775Z,98677.67
2022-10-02T23:37:54.098Z,98680.99
2022-10-02T23:40:44.026Z,98685.38
2022-10-02T23:43:21.821Z,98688.19
2022-10-02T23:46:02.054Z,98685.56
2022-10-02T23:48:34.693Z,98690.81
2022-10-02T23:51:16.551Z,98692.05
2022-10-02T23:54:16.136Z,98693.63
2022-10-02T23:57:14.890Z,98690.64
